createdAt,value
2023-02-25T00:02:07.142Z,12.60
2023-02-25T00:07:09.423Z,11.82
2023-02-25T00:12:11.575Z,13.15
2023-02-25T00:17:13.594Z,11.95
2023-02-25T00:22:15.505Z,12.15
2023-02-25T00:27:18.399Z,12.80
2023-02-25T00:32:21.360Z,13.13
2023-02-25T00:37:23.291Z,9.02
2023-02-25T00:42:25.034Z,9.43
2023-02-25T00:47:26.784Z,8.30
2023-02-25T00:52:28.503Z,10.35
2023-02-25T00:57:30.599Z,9.02
2023-02-25T01:02:32.386Z,5.82
2023-02-25T01:07:34.795Z,7.38
2023-02-25T01:12:37.106Z,7.85
2023-02-25T01:17:38.901Z,8.43
2023-02-25T01:22:41.942Z,8.80
2023-02-25T01:27:44.417Z,5.95
2023-02-25T01:32:46.223Z,10.82
2023-02-25T01:37:49.817Z,5.47
2023-02-25T01:42:51.543Z,7.32
2023-02-25T01:48:02.752Z,14.15
2023-02-25T01:53:05.955Z,9.30
2023-02-25T01:58:12.792Z,5.70
2023-02-25T02:03:17.888Z,6.05
2023-02-25T02:08:20.009Z,8.25
2023-02-25T02:13:21.833Z,4.22
2023-02-25T02:18:24.857Z,7.25
2023-02-25T02:23:45.160Z,7.43
2023-02-25T02:29:22.610Z,7.50
2023-02-25T02:34:40.794Z,6.72
2023-02-25T02:39:58.393Z,10.65
2023-02-25T02:45:25.988Z,7.70
2023-02-25T02:50:35.167Z,10.68
2023-02-25T02:55:41.465Z,7.18
2023-02-25T03:00:48.809Z,5.25
2023-02-25T03:05:53.234Z,3.65
2023-02-25T03:10:55.309Z,4.28
2023-02-25T03:16:00.049Z,4.32
2023-02-25T03:21:06.691Z,3.97
2023-02-25T03:26:28.944Z,2.95
2023-02-25T03:31:40.920Z,2.95
2023-02-25T03:36:51.070Z,3.92
2023-02-25T03:41:55.676Z,3.88
2023-02-25T03:46:59.111Z,2.05
2023-02-25T03:52:04.717Z,3.38
2023-02-25T03:57:06.689Z,1.20
2023-02-25T04:02:09.131Z,1.35
2023-02-25T04:07:10.947Z,3.40
2023-02-25T04:12:12.700Z,6.50
2023-02-25T04:17:14.478Z,2.30
2023-02-25T04:22:16.254Z,3.30
2023-02-25T04:27:18.155Z,4.00
2023-02-25T04:32:20.205Z,4.32
2023-02-25T04:37:22.088Z,5.15
2023-02-25T04:42:24.129Z,3.92
2023-02-25T04:47:26.145Z,5.00
2023-02-25T04:52:28.666Z,3.65
2023-02-25T04:57:30.560Z,5.20
2023-02-25T05:02:33.075Z,2.63
2023-02-25T05:07:34.849Z,5.30
2023-02-25T05:12:36.929Z,3.10
2023-02-25T05:17:38.975Z,5.18
2023-02-25T05:22:42.426Z,3.63
2023-02-25T05:27:44.305Z,2.97
2023-02-25T05:32:46.346Z,5.40
2023-02-25T05:37:48.239Z,3.97
2023-02-25T05:42:50.165Z,4.20
2023-02-25T05:47:51.955Z,3.67
2023-02-25T05:52:53.741Z,2.80
2023-02-25T05:57:55.431Z,3.42
2023-02-25T06:02:57.853Z,2.35
2023-02-25T06:08:00.722Z,1.90
2023-02-25T06:13:02.454Z,2.58
2023-02-25T06:18:04.321Z,2.20
2023-02-25T06:23:07.116Z,1.92
2023-02-25T06:28:09.483Z,4.47
2023-02-25T06:33:11.205Z,2.45
2023-02-25T06:38:12.952Z,2.78
2023-02-25T06:43:14.944Z,6.43
2023-02-25T06:48:16.765Z,4.90
2023-02-25T06:53:18.613Z,2.53
2023-02-25T06:58:20.449Z,5.40
2023-02-25T07:03:22.192Z,5.30
2023-02-25T07:08:24.730Z,3.13
2023-02-25T07:13:26.489Z,4.63
2023-02-25T07:18:28.322Z,4.78
2023-02-25T07:23:30.054Z,6.28
2023-02-25T07:28:32.068Z,3.70
2023-02-25T07:33:33.826Z,5.65
2023-02-25T07:38:35.759Z,2.97
2023-02-25T07:43:37.787Z,4.82
2023-02-25T07:48:39.791Z,4.68
2023-02-25T07:53:41.519Z,4.85
2023-02-25T07:58:43.467Z,4.05
2023-02-25T08:03:48.517Z,3.22
2023-02-25T08:08:55.220Z,3.60
2023-02-25T08:13:58.939Z,2.50
2023-02-25T08:19:00.766Z,3.33
2023-02-25T08:24:02.568Z,2.90
2023-02-25T08:29:04.756Z,4.60
2023-02-25T08:34:06.569Z,2.88
2023-02-25T08:39:09.247Z,1.40
2023-02-25T08:44:12.169Z,1.98
2023-02-25T08:49:13.989Z,3.75
2023-02-25T08:54:15.773Z,2.25
2023-02-25T08:59:17.925Z,3.58
2023-02-25T09:04:23.026Z,4.45
2023-02-25T09:09:25.358Z,4.45
2023-02-25T09:14:27.419Z,8.13
2023-02-25T09:19:29.578Z,6.22
2023-02-25T09:24:33.255Z,4.57
2023-02-25T09:29:35.807Z,4.32
2023-02-25T09:34:37.616Z,3.70
2023-02-25T09:39:39.710Z,3.03
2023-02-25T09:44:57.610Z,3.72
2023-02-25T09:50:07.373Z,5.28
2023-02-25T09:55:36.796Z,6.70
2023-02-25T10:00:47.157Z,5.22
2023-02-25T10:06:08.365Z,6.30
2023-02-25T10:11:31.895Z,4.68
2023-02-25T10:16:36.674Z,5.00
2023-02-25T10:21:53.506Z,2.78
2023-02-25T10:27:00.228Z,5.88
2023-02-25T10:32:17.426Z,3.17
2023-02-25T10:37:38.200Z,2.60
2023-02-25T10:42:40.166Z,3.22
2023-02-25T10:47:46.208Z,3.85
2023-02-25T10:52:57.535Z,5.28
2023-02-25T10:58:00.752Z,3.70
2023-02-25T11:03:05.178Z,5.25
2023-02-25T11:08:29.348Z,5.82
2023-02-25T11:13:34.994Z,5.30
2023-02-25T11:18:38.258Z,4.40
2023-02-25T11:23:43.309Z,4.10
2023-02-25T11:28:48.688Z,4.18
2023-02-25T11:33:59.256Z,6.93
2023-02-25T11:39:20.790Z,3.72
2023-02-25T11:44:39.122Z,8.50
2023-02-25T11:50:07.094Z,4.25
2023-02-25T11:55:20.896Z,3.08
2023-02-25T12:00:44.968Z,3.50
2023-02-25T12:06:06.866Z,2.17
2023-02-25T12:11:46.175Z,2.65
2023-02-25T12:16:59.802Z,2.47
2023-02-25T12:22:34.332Z,2.75
2023-02-25T12:27:36.298Z,1.50
2023-02-25T12:32:56.763Z,1.55
2023-02-25T12:38:46.148Z,1.80
2023-02-25T12:43:50.430Z,2.15
2023-02-25T12:49:22.327Z,0.88
2023-02-25T12:54:34.618Z,0.75
2023-02-25T13:00:10.245Z,2.17
2023-02-25T13:05:32.692Z,1.15
2023-02-25T13:10:51.478Z,2.30
2023-02-25T13:15:55.929Z,2.17
2023-02-25T13:21:00.335Z,0.98
2023-02-25T13:26:22.649Z,2.40
2023-02-25T13:31:30.994Z,0.75
2023-02-25T13:36:38.426Z,0.40
2023-02-25T13:41:55.188Z,0.63
2023-02-25T13:47:34.442Z,1.83
2023-02-25T13:52:57.935Z,0.77
2023-02-25T13:58:06.006Z,0.50
2023-02-25T14:03:25.851Z,1.00
2023-02-25T14:09:16.442Z,0.40
2023-02-25T14:14:21.158Z,0.52
2023-02-25T14:19:49.305Z,0.77
2023-02-25T14:24:57.452Z,0.80
2023-02-25T14:30:12.002Z,0.50
2023-02-25T14:35:22.953Z,0.47
2023-02-25T14:40:30.818Z,0.65
2023-02-25T14:45:53.786Z,1.52
2023-02-25T14:51:01.669Z,1.33
2023-02-25T14:56:44.785Z,1.33
2023-02-25T15:02:10.631Z,0.77
2023-02-25T15:07:20.604Z,0.88
2023-02-25T15:12:30.872Z,0.40
2023-02-25T15:18:23.414Z,1.13
2023-02-25T15:23:48.761Z,0.45
2023-02-25T15:28:54.964Z,1.00
2023-02-25T15:34:21.597Z,0.70
2023-02-25T15:39:41.855Z,1.83
2023-02-25T15:44:45.814Z,1.30
2023-02-25T15:49:48.895Z,0.73
2023-02-25T15:54:51.309Z,1.70
2023-02-25T15:59:58.198Z,0.80
2023-02-25T16:05:08.185Z,1.20
2023-02-25T16:10:18.638Z,2.78
2023-02-25T16:15:31.124Z,1.10
2023-02-25T16:20:46.542Z,2.60
2023-02-25T16:26:25.175Z,1.20
2023-02-25T16:31:32.976Z,1.05
2023-02-25T16:36:37.725Z,2.30
2023-02-25T16:41:39.976Z,2.63
2023-02-25T16:46:47.683Z,3.05
2023-02-25T16:51:52.853Z,4.43
2023-02-25T16:56:59.193Z,3.00
2023-02-25T17:02:05.547Z,3.80
2023-02-25T17:07:13.197Z,1.20
2023-02-25T17:12:25.959Z,7.60
2023-02-25T17:17:33.025Z,4.30
2023-02-25T17:22:37.867Z,3.88
2023-02-25T17:27:40.815Z,2.78
2023-02-25T17:32:45.084Z,4.10
2023-02-25T17:37:46.853Z,1.60
2023-02-25T17:42:48.659Z,1.70
2023-02-25T17:47:50.447Z,1.23
2023-02-25T17:52:52.362Z,3.03
2023-02-25T17:57:59.374Z,4.57
2023-02-25T18:03:18.049Z,8.65
2023-02-25T18:08:50.394Z,8.45
2023-02-25T18:13:52.659Z,4.32
2023-02-25T18:18:56.031Z,2.35
2023-02-25T18:23:59.349Z,5.82
2023-02-25T18:29:01.295Z,6.13
2023-02-25T18:34:03.183Z,7.20
2023-02-25T18:39:05.005Z,10.25
2023-02-25T18:44:13.735Z,2.78
2023-02-25T18:49:15.555Z,1.63
2023-02-25T18:54:17.563Z,4.38
2023-02-25T18:59:19.287Z,3.90
2023-02-25T19:04:21.039Z,2.53
2023-02-25T19:09:24.950Z,6.75
2023-02-25T19:14:26.843Z,2.75
2023-02-25T19:19:28.575Z,5.57
2023-02-25T19:24:30.276Z,3.38
2023-02-25T19:29:32.278Z,2.35
2023-02-25T19:34:33.986Z,7.30
2023-02-25T19:39:35.677Z,6.40
2023-02-25T19:44:38.001Z,2.20
2023-02-25T19:49:39.672Z,4.80
2023-02-25T19:54:41.653Z,3.40
2023-02-25T19:59:43.395Z,2.67
2023-02-25T20:04:45.203Z,7.15
2023-02-25T20:09:46.924Z,12.00
2023-02-25T20:14:48.812Z,15.23
2023-02-25T20:19:50.544Z,7.78
2023-02-25T20:24:52.250Z,4.72
2023-02-25T20:29:55.321Z,8.07
2023-02-25T20:34:57.881Z,3.17
2023-02-25T20:40:00.311Z,17.73
2023-02-25T20:45:02.519Z,3.38
2023-02-25T20:50:06.722Z,4.30
2023-02-25T20:55:09.013Z,3.10
2023-02-25T21:00:16.494Z,1.88
2023-02-25T21:05:18.491Z,11.25
2023-02-25T21:10:20.325Z,3.85
2023-02-25T21:15:22.212Z,4.85
2023-02-25T21:20:23.982Z,6.82
2023-02-25T21:25:25.899Z,2.65
2023-02-25T21:30:28.049Z,3.55
2023-02-25T21:35:31.269Z,3.72
2023-02-25T21:40:34.339Z,2.63
2023-02-25T21:45:36.211Z,1.98
2023-02-25T21:50:38.169Z,3.53
2023-02-25T21:55:40.166Z,2.35
2023-02-25T22:00:42.310Z,2.08
2023-02-25T22:05:46.361Z,2.47
2023-02-25T22:10:48.199Z,2.88
2023-02-25T22:15:50.378Z,3.78
2023-02-25T22:20:52.180Z,3.05
2023-02-25T22:25:54.233Z,12.65
2023-02-25T22:30:56.364Z,6.18
2023-02-25T22:36:00.804Z,2.67
2023-02-25T22:41:03.817Z,9.23
2023-02-25T22:46:08.401Z,3.50
2023-02-25T22:51:12.312Z,2.22
2023-02-25T22:56:15.757Z,3.38
2023-02-25T23:01:20.329Z,4.07
2023-02-25T23:06:34.167Z,1.45
2023-02-25T23:11:44.560Z,7.13
2023-02-25T23:16:46.547Z,1.83
2023-02-25T23:21:48.512Z,3.15
2023-02-25T23:26:53.678Z,7.13
2023-02-25T23:31:55.664Z,3.50
2023-02-25T23:36:57.863Z,3.10
2023-02-25T23:41:59.548Z,2.47
2023-02-25T23:47:01.861Z,1.95
2023-02-25T23:52:04.045Z,2.17
2023-02-25T23:57:06.677Z,1.95
